sensor_id;sensor_type;location;lat;lon;timestamp;temperature;humidity
25440;DHT22;13365;52.208;5.488;2023-11-18T00:01:48;11.70;97.70
25440;DHT22;13365;52.208;5.488;2023-11-18T00:04:14;11.80;97.50
25440;DHT22;13365;52.208;5.488;2023-11-18T00:06:43;11.70;97.40
25440;DHT22;13365;52.208;5.488;2023-11-18T00:09:12;11.60;97.40
25440;DHT22;13365;52.208;5.488;2023-11-18T00:11:39;11.60;97.90
25440;DHT22;13365;52.208;5.488;2023-11-18T00:14:04;11.60;97.50
25440;DHT22;13365;52.208;5.488;2023-11-18T00:16:30;11.50;97.90
25440;DHT22;13365;52.208;5.488;2023-11-18T00:18:55;11.50;97.70
25440;DHT22;13365;52.208;5.488;2023-11-18T00:21:21;11.50;97.70
25440;DHT22;13365;52.208;5.488;2023-11-18T00:23:48;11.40;97.80
25440;DHT22;13365;52.208;5.488;2023-11-18T00:26:13;11.50;97.90
25440;DHT22;13365;52.208;5.488;2023-11-18T00:28:39;11.40;97.80
25440;DHT22;13365;52.208;5.488;2023-11-18T00:31:05;11.40;97.90
25440;DHT22;13365;52.208;5.488;2023-11-18T00:33:31;11.50;97.90
25440;DHT22;13365;52.208;5.488;2023-11-18T00:35:57;11.50;97.90
25440;DHT22;13365;52.208;5.488;2023-11-18T00:38:23;11.50;98.00
25440;DHT22;13365;52.208;5.488;2023-11-18T00:40:48;11.50;98.10
25440;DHT22;13365;52.208;5.488;2023-11-18T00:43:14;11.40;98.10
25440;DHT22;13365;52.208;5.488;2023-11-18T00:45:40;11.50;98.20
25440;DHT22;13365;52.208;5.488;2023-11-18T00:48:06;11.50;98.10
25440;DHT22;13365;52.208;5.488;2023-11-18T00:50:32;11.40;98.00
25440;DHT22;13365;52.208;5.488;2023-11-18T00:52:58;11.40;98.00
25440;DHT22;13365;52.208;5.488;2023-11-18T00:55:24;11.40;98.00
25440;DHT22;13365;52.208;5.488;2023-11-18T00:57:49;11.50;98.00
25440;DHT22;13365;52.208;5.488;2023-11-18T01:00:15;11.40;98.00
25440;DHT22;13365;52.208;5.488;2023-11-18T01:02:47;11.40;97.90
25440;DHT22;13365;52.208;5.488;2023-11-18T01:05:15;11.40;97.90
25440;DHT22;13365;52.208;5.488;2023-11-18T01:07:41;11.40;97.90
25440;DHT22;13365;52.208;5.488;2023-11-18T01:10:08;11.40;97.80
25440;DHT22;13365;52.208;5.488;2023-11-18T01:12:35;11.40;97.70
25440;DHT22;13365;52.208;5.488;2023-11-18T01:15:01;11.50;98.10
25440;DHT22;13365;52.208;5.488;2023-11-18T01:17:28;11.50;97.80
25440;DHT22;13365;52.208;5.488;2023-11-18T01:19:54;11.50;98.00
25440;DHT22;13365;52.208;5.488;2023-11-18T01:22:20;11.50;98.20
25440;DHT22;13365;52.208;5.488;2023-11-18T01:24:46;11.40;98.30
25440;DHT22;13365;52.208;5.488;2023-11-18T01:27:12;11.40;98.60
25440;DHT22;13365;52.208;5.488;2023-11-18T01:29:38;11.50;98.80
25440;DHT22;13365;52.208;5.488;2023-11-18T01:32:06;11.40;98.80
25440;DHT22;13365;52.208;5.488;2023-11-18T01:34:38;11.50;99.00
25440;DHT22;13365;52.208;5.488;2023-11-18T01:37:05;11.60;99.00
25440;DHT22;13365;52.208;5.488;2023-11-18T01:39:33;11.70;99.10
25440;DHT22;13365;52.208;5.488;2023-11-18T01:41:58;11.70;99.00
25440;DHT22;13365;52.208;5.488;2023-11-18T01:44:25;11.80;99.00
25440;DHT22;13365;52.208;5.488;2023-11-18T01:46:50;11.80;99.00
25440;DHT22;13365;52.208;5.488;2023-11-18T01:49:16;11.80;98.90
25440;DHT22;13365;52.208;5.488;2023-11-18T01:51:45;11.80;98.80
25440;DHT22;13365;52.208;5.488;2023-11-18T01:54:12;11.80;98.80
25440;DHT22;13365;52.208;5.488;2023-11-18T01:56:42;11.80;98.70
25440;DHT22;13365;52.208;5.488;2023-11-18T01:59:09;11.80;98.70
25440;DHT22;13365;52.208;5.488;2023-11-18T02:01:35;11.80;98.60
25440;DHT22;13365;52.208;5.488;2023-11-18T02:04:02;11.90;98.60
25440;DHT22;13365;52.208;5.488;2023-11-18T02:06:28;11.90;98.50
25440;DHT22;13365;52.208;5.488;2023-11-18T02:08:54;11.80;98.50
25440;DHT22;13365;52.208;5.488;2023-11-18T02:11:36;11.80;98.60
25440;DHT22;13365;52.208;5.488;2023-11-18T02:14:07;11.90;98.60
25440;DHT22;13365;52.208;5.488;2023-11-18T02:16:38;11.90;98.50
25440;DHT22;13365;52.208;5.488;2023-11-18T02:19:10;11.80;98.50
25440;DHT22;13365;52.208;5.488;2023-11-18T02:21:39;11.80;98.60
25440;DHT22;13365;52.208;5.488;2023-11-18T02:24:06;11.60;98.60
25440;DHT22;13365;52.208;5.488;2023-11-18T02:26:32;11.70;98.80
25440;DHT22;13365;52.208;5.488;2023-11-18T02:28:57;11.70;98.80
25440;DHT22;13365;52.208;5.488;2023-11-18T02:31:28;11.70;98.90
25440;DHT22;13365;52.208;5.488;2023-11-18T02:34:04;11.70;99.00
25440;DHT22;13365;52.208;5.488;2023-11-18T02:36:37;11.60;99.00
25440;DHT22;13365;52.208;5.488;2023-11-18T02:39:08;11.70;99.00
25440;DHT22;13365;52.208;5.488;2023-11-18T02:41:38;11.70;99.00
25440;DHT22;13365;52.208;5.488;2023-11-18T02:44:05;11.70;99.10
25440;DHT22;13365;52.208;5.488;2023-11-18T02:46:36;11.70;99.10
25440;DHT22;13365;52.208;5.488;2023-11-18T02:49:02;11.70;99.00
25440;DHT22;13365;52.208;5.488;2023-11-18T02:51:28;11.70;99.20
25440;DHT22;13365;52.208;5.488;2023-11-18T02:53:57;11.80;99.10
25440;DHT22;13365;52.208;5.488;2023-11-18T02:56:22;11.70;99.00
25440;DHT22;13365;52.208;5.488;2023-11-18T02:58:48;11.80;99.00
25440;DHT22;13365;52.208;5.488;2023-11-18T03:01:13;11.80;99.00
25440;DHT22;13365;52.208;5.488;2023-11-18T03:03:39;11.70;98.90
25440;DHT22;13365;52.208;5.488;2023-11-18T03:06:04;11.70;98.80
25440;DHT22;13365;52.208;5.488;2023-11-18T03:08:31;11.60;98.90
25440;DHT22;13365;52.208;5.488;2023-11-18T03:10:57;11.50;99.00
25440;DHT22;13365;52.208;5.488;2023-11-18T03:13:23;11.60;99.30
25440;DHT22;13365;52.208;5.488;2023-11-18T03:15:50;11.50;99.10
25440;DHT22;13365;52.208;5.488;2023-11-18T03:18:15;11.60;99.10
25440;DHT22;13365;52.208;5.488;2023-11-18T03:20:41;11.70;99.00
25440;DHT22;13365;52.208;5.488;2023-11-18T03:23:06;11.70;98.90
25440;DHT22;13365;52.208;5.488;2023-11-18T03:25:34;11.70;98.80
25440;DHT22;13365;52.208;5.488;2023-11-18T03:28:00;11.80;98.60
25440;DHT22;13365;52.208;5.488;2023-11-18T03:30:26;11.70;98.60
25440;DHT22;13365;52.208;5.488;2023-11-18T03:32:54;11.70;98.60
25440;DHT22;13365;52.208;5.488;2023-11-18T03:35:19;11.70;98.50
25440;DHT22;13365;52.208;5.488;2023-11-18T03:37:45;11.80;98.60
25440;DHT22;13365;52.208;5.488;2023-11-18T03:40:13;11.80;98.50
25440;DHT22;13365;52.208;5.488;2023-11-18T03:42:42;11.70;98.40
25440;DHT22;13365;52.208;5.488;2023-11-18T03:45:08;11.70;98.50
25440;DHT22;13365;52.208;5.488;2023-11-18T03:47:34;11.70;98.60
25440;DHT22;13365;52.208;5.488;2023-11-18T03:50:00;11.70;98.70
25440;DHT22;13365;52.208;5.488;2023-11-18T03:52:26;11.70;98.70
25440;DHT22;13365;52.208;5.488;2023-11-18T03:54:53;11.70;98.80
25440;DHT22;13365;52.208;5.488;2023-11-18T03:57:20;11.70;98.80
25440;DHT22;13365;52.208;5.488;2023-11-18T03:59:46;11.70;98.80
25440;DHT22;13365;52.208;5.488;2023-11-18T04:02:11;11.70;98.90
25440;DHT22;13365;52.208;5.488;2023-11-18T04:04:39;11.60;98.90
25440;DHT22;13365;52.208;5.488;2023-11-18T04:07:04;11.50;99.00
25440;DHT22;13365;52.208;5.488;2023-11-18T04:09:30;11.50;99.30
25440;DHT22;13365;52.208;5.488;2023-11-18T04:11:56;11.40;99.40
25440;DHT22;13365;52.208;5.488;2023-11-18T04:14:22;11.40;99.50
25440;DHT22;13365;52.208;5.488;2023-11-18T04:16:48;11.40;99.60
25440;DHT22;13365;52.208;5.488;2023-11-18T04:19:14;11.40;99.50
25440;DHT22;13365;52.208;5.488;2023-11-18T04:21:40;11.30;99.60
25440;DHT22;13365;52.208;5.488;2023-11-18T04:24:06;11.40;99.60
25440;DHT22;13365;52.208;5.488;2023-11-18T04:26:32;11.40;99.70
25440;DHT22;13365;52.208;5.488;2023-11-18T04:28:58;11.50;99.70
25440;DHT22;13365;52.208;5.488;2023-11-18T04:31:26;11.40;99.70
25440;DHT22;13365;52.208;5.488;2023-11-18T04:33:51;11.30;99.80
25440;DHT22;13365;52.208;5.488;2023-11-18T04:36:17;11.30;99.90
25440;DHT22;13365;52.208;5.488;2023-11-18T04:38:44;11.20;99.90
25440;DHT22;13365;52.208;5.488;2023-11-18T04:41:10;11.20;99.90
25440;DHT22;13365;52.208;5.488;2023-11-18T04:43:35;11.20;99.90
25440;DHT22;13365;52.208;5.488;2023-11-18T04:46:01;11.00;99.90
25440;DHT22;13365;52.208;5.488;2023-11-18T04:48:26;11.10;99.90
25440;DHT22;13365;52.208;5.488;2023-11-18T04:50:52;11.20;99.90
25440;DHT22;13365;52.208;5.488;2023-11-18T04:53:17;11.20;99.90
25440;DHT22;13365;52.208;5.488;2023-11-18T04:55:43;11.30;99.90
25440;DHT22;13365;52.208;5.488;2023-11-18T04:58:08;11.30;99.90
25440;DHT22;13365;52.208;5.488;2023-11-18T05:00:38;11.20;99.90
25440;DHT22;13365;52.208;5.488;2023-11-18T05:03:04;11.20;99.90
25440;DHT22;13365;52.208;5.488;2023-11-18T05:05:31;11.30;99.90
25440;DHT22;13365;52.208;5.488;2023-11-18T05:07:57;11.40;99.90
25440;DHT22;13365;52.208;5.488;2023-11-18T05:10:22;11.30;99.90
25440;DHT22;13365;52.208;5.488;2023-11-18T05:12:49;11.30;99.90
25440;DHT22;13365;52.208;5.488;2023-11-18T05:15:21;11.30;99.90
25440;DHT22;13365;52.208;5.488;2023-11-18T05:17:53;11.40;99.90
25440;DHT22;13365;52.208;5.488;2023-11-18T05:20:19;11.50;99.90
25440;DHT22;13365;52.208;5.488;2023-11-18T05:22:45;11.50;99.90
25440;DHT22;13365;52.208;5.488;2023-11-18T05:25:11;11.50;99.90
25440;DHT22;13365;52.208;5.488;2023-11-18T05:27:37;11.50;99.90
25440;DHT22;13365;52.208;5.488;2023-11-18T05:30:08;11.50;99.90
25440;DHT22;13365;52.208;5.488;2023-11-18T05:32:34;11.40;99.90
25440;DHT22;13365;52.208;5.488;2023-11-18T05:35:00;11.50;99.90
25440;DHT22;13365;52.208;5.488;2023-11-18T05:37:26;11.50;99.90
25440;DHT22;13365;52.208;5.488;2023-11-18T05:39:54;11.60;99.90
25440;DHT22;13365;52.208;5.488;2023-11-18T05:42:25;11.70;99.90
25440;DHT22;13365;52.208;5.488;2023-11-18T05:44:51;11.60;99.90
25440;DHT22;13365;52.208;5.488;2023-11-18T05:47:24;11.60;99.90
25440;DHT22;13365;52.208;5.488;2023-11-18T05:49:51;11.60;99.90
25440;DHT22;13365;52.208;5.488;2023-11-18T05:52:17;11.60;99.90
25440;DHT22;13365;52.208;5.488;2023-11-18T05:54:42;11.60;99.90
25440;DHT22;13365;52.208;5.488;2023-11-18T05:57:08;11.60;99.90
25440;DHT22;13365;52.208;5.488;2023-11-18T05:59:33;11.60;99.90
25440;DHT22;13365;52.208;5.488;2023-11-18T06:01:59;11.50;99.90
25440;DHT22;13365;52.208;5.488;2023-11-18T06:04:25;11.50;99.90
25440;DHT22;13365;52.208;5.488;2023-11-18T06:06:50;11.60;99.90
25440;DHT22;13365;52.208;5.488;2023-11-18T06:09:17;11.50;99.90
25440;DHT22;13365;52.208;5.488;2023-11-18T06:11:47;11.50;99.90
25440;DHT22;13365;52.208;5.488;2023-11-18T06:14:12;11.50;99.90
25440;DHT22;13365;52.208;5.488;2023-11-18T06:16:38;11.50;99.90
25440;DHT22;13365;52.208;5.488;2023-11-18T06:19:05;11.40;99.90
25440;DHT22;13365;52.208;5.488;2023-11-18T06:21:30;11.40;99.90
25440;DHT22;13365;52.208;5.488;2023-11-18T06:23:57;11.40;99.90
25440;DHT22;13365;52.208;5.488;2023-11-18T06:26:23;11.40;99.90
25440;DHT22;13365;52.208;5.488;2023-11-18T06:28:53;11.30;99.90
25440;DHT22;13365;52.208;5.488;2023-11-18T06:31:21;11.20;99.90
25440;DHT22;13365;52.208;5.488;2023-11-18T06:33:49;11.10;99.90
25440;DHT22;13365;52.208;5.488;2023-11-18T06:38:44;11.30;99.90
25440;DHT22;13365;52.208;5.488;2023-11-18T06:41:09;11.40;99.90
25440;DHT22;13365;52.208;5.488;2023-11-18T06:43:40;11.40;99.90
25440;DHT22;13365;52.208;5.488;2023-11-18T06:48:54;11.30;99.90
25440;DHT22;13365;52.208;5.488;2023-11-18T06:51:20;11.10;99.90
25440;DHT22;13365;52.208;5.488;2023-11-18T06:53:55;11.30;99.90
25440;DHT22;13365;52.208;5.488;2023-11-18T06:56:22;11.40;99.90
25440;DHT22;13365;52.208;5.488;2023-11-18T06:58:47;11.40;99.90
25440;DHT22;13365;52.208;5.488;2023-11-18T07:01:13;11.40;99.90
25440;DHT22;13365;52.208;5.488;2023-11-18T07:03:47;11.40;99.90
25440;DHT22;13365;52.208;5.488;2023-11-18T07:06:21;11.50;99.90
25440;DHT22;13365;52.208;5.488;2023-11-18T07:08:53;11.40;99.90
25440;DHT22;13365;52.208;5.488;2023-11-18T07:11:19;11.50;99.90
25440;DHT22;13365;52.208;5.488;2023-11-18T07:13:47;11.50;99.90
25440;DHT22;13365;52.208;5.488;2023-11-18T07:16:13;11.60;99.90
25440;DHT22;13365;52.208;5.488;2023-11-18T07:18:40;11.60;99.90
25440;DHT22;13365;52.208;5.488;2023-11-18T07:21:07;11.70;99.90
25440;DHT22;13365;52.208;5.488;2023-11-18T07:23:35;11.80;99.90
25440;DHT22;13365;52.208;5.488;2023-11-18T07:26:01;11.80;99.90
25440;DHT22;13365;52.208;5.488;2023-11-18T07:28:27;11.80;99.90
25440;DHT22;13365;52.208;5.488;2023-11-18T07:30:53;11.90;99.90
25440;DHT22;13365;52.208;5.488;2023-11-18T07:33:20;11.80;99.90
25440;DHT22;13365;52.208;5.488;2023-11-18T07:35:49;11.90;99.90
25440;DHT22;13365;52.208;5.488;2023-11-18T07:38:15;12.00;99.90
25440;DHT22;13365;52.208;5.488;2023-11-18T07:40:41;11.90;99.90
25440;DHT22;13365;52.208;5.488;2023-11-18T07:43:11;11.90;99.90
25440;DHT22;13365;52.208;5.488;2023-11-18T07:45:38;12.00;99.90
25440;DHT22;13365;52.208;5.488;2023-11-18T07:48:05;11.90;99.90
25440;DHT22;13365;52.208;5.488;2023-11-18T07:50:35;11.80;99.90
25440;DHT22;13365;52.208;5.488;2023-11-18T07:53:01;11.80;99.90
25440;DHT22;13365;52.208;5.488;2023-11-18T07:55:28;11.80;99.90
25440;DHT22;13365;52.208;5.488;2023-11-18T07:57:54;11.60;99.90
25440;DHT22;13365;52.208;5.488;2023-11-18T08:00:19;11.60;99.90
25440;DHT22;13365;52.208;5.488;2023-11-18T08:02:45;11.50;99.90
25440;DHT22;13365;52.208;5.488;2023-11-18T08:05:10;11.60;99.90
25440;DHT22;13365;52.208;5.488;2023-11-18T08:07:40;11.60;99.90
25440;DHT22;13365;52.208;5.488;2023-11-18T08:10:06;11.50;99.90
25440;DHT22;13365;52.208;5.488;2023-11-18T08:12:32;11.50;99.90
25440;DHT22;13365;52.208;5.488;2023-11-18T08:14:59;11.70;99.90
25440;DHT22;13365;52.208;5.488;2023-11-18T08:17:25;11.60;99.90
25440;DHT22;13365;52.208;5.488;2023-11-18T08:19:54;11.50;99.90
25440;DHT22;13365;52.208;5.488;2023-11-18T08:22:21;11.50;99.90
25440;DHT22;13365;52.208;5.488;2023-11-18T08:24:48;11.40;99.90
25440;DHT22;13365;52.208;5.488;2023-11-18T08:27:14;11.40;99.90
25440;DHT22;13365;52.208;5.488;2023-11-18T08:29:40;11.50;99.90
25440;DHT22;13365;52.208;5.488;2023-11-18T08:32:06;11.40;99.90
25440;DHT22;13365;52.208;5.488;2023-11-18T08:34:35;11.40;99.90
25440;DHT22;13365;52.208;5.488;2023-11-18T08:37:03;11.30;99.90
25440;DHT22;13365;52.208;5.488;2023-11-18T08:39:29;11.30;99.90
25440;DHT22;13365;52.208;5.488;2023-11-18T08:41:54;11.20;99.90
25440;DHT22;13365;52.208;5.488;2023-11-18T08:44:20;11.10;99.90
25440;DHT22;13365;52.208;5.488;2023-11-18T08:46:45;11.00;99.90
25440;DHT22;13365;52.208;5.488;2023-11-18T08:49:12;11.00;99.90
25440;DHT22;13365;52.208;5.488;2023-11-18T08:51:37;11.10;99.90
25440;DHT22;13365;52.208;5.488;2023-11-18T08:54:04;11.30;99.90
25440;DHT22;13365;52.208;5.488;2023-11-18T08:56:50;11.40;99.90
25440;DHT22;13365;52.208;5.488;2023-11-18T08:59:20;11.40;99.90
25440;DHT22;13365;52.208;5.488;2023-11-18T09:01:52;11.30;99.90
25440;DHT22;13365;52.208;5.488;2023-11-18T09:04:25;11.40;99.90
25440;DHT22;13365;52.208;5.488;2023-11-18T09:06:54;11.30;99.90
25440;DHT22;13365;52.208;5.488;2023-11-18T09:09:23;11.40;99.90
25440;DHT22;13365;52.208;5.488;2023-11-18T09:11:56;11.50;99.90
25440;DHT22;13365;52.208;5.488;2023-11-18T09:14:23;11.70;99.90
25440;DHT22;13365;52.208;5.488;2023-11-18T09:16:50;11.70;99.90
25440;DHT22;13365;52.208;5.488;2023-11-18T09:19:16;11.60;99.90
25440;DHT22;13365;52.208;5.488;2023-11-18T09:21:42;11.60;99.90
25440;DHT22;13365;52.208;5.488;2023-11-18T09:24:08;11.50;99.90
25440;DHT22;13365;52.208;5.488;2023-11-18T09:26:37;11.60;99.90
25440;DHT22;13365;52.208;5.488;2023-11-18T09:29:03;11.70;99.90
25440;DHT22;13365;52.208;5.488;2023-11-18T09:31:29;11.70;99.90
25440;DHT22;13365;52.208;5.488;2023-11-18T09:33:58;11.70;99.90
25440;DHT22;13365;52.208;5.488;2023-11-18T09:36:23;11.70;99.90
25440;DHT22;13365;52.208;5.488;2023-11-18T09:38:49;11.90;99.90
25440;DHT22;13365;52.208;5.488;2023-11-18T09:41:19;11.90;99.90
25440;DHT22;13365;52.208;5.488;2023-11-18T09:43:46;11.80;99.90
25440;DHT22;13365;52.208;5.488;2023-11-18T09:46:15;11.90;99.90
25440;DHT22;13365;52.208;5.488;2023-11-18T09:48:51;11.80;99.90
25440;DHT22;13365;52.208;5.488;2023-11-18T09:51:28;11.80;99.90
25440;DHT22;13365;52.208;5.488;2023-11-18T09:54:00;11.70;99.90
25440;DHT22;13365;52.208;5.488;2023-11-18T09:56:59;11.60;99.90
25440;DHT22;13365;52.208;5.488;2023-11-18T09:59:58;11.70;99.90
25440;DHT22;13365;52.208;5.488;2023-11-18T10:02:39;11.70;99.90
25440;DHT22;13365;52.208;5.488;2023-11-18T10:05:07;11.70;99.90
25440;DHT22;13365;52.208;5.488;2023-11-18T10:07:41;11.70;99.90
25440;DHT22;13365;52.208;5.488;2023-11-18T10:10:08;11.70;99.90
25440;DHT22;13365;52.208;5.488;2023-11-18T10:12:43;11.80;99.90
25440;DHT22;13365;52.208;5.488;2023-11-18T10:15:18;11.90;99.90
25440;DHT22;13365;52.208;5.488;2023-11-18T10:17:45;11.70;99.90
25440;DHT22;13365;52.208;5.488;2023-11-18T10:20:23;11.70;99.90
25440;DHT22;13365;52.208;5.488;2023-11-18T10:23:06;11.80;99.90
25440;DHT22;13365;52.208;5.488;2023-11-18T10:25:35;11.80;99.90
25440;DHT22;13365;52.208;5.488;2023-11-18T10:28:01;11.80;99.90
25440;DHT22;13365;52.208;5.488;2023-11-18T10:30:27;11.80;99.90
25440;DHT22;13365;52.208;5.488;2023-11-18T10:33:00;11.80;99.90
25440;DHT22;13365;52.208;5.488;2023-11-18T10:35:35;11.80;99.90
25440;DHT22;13365;52.208;5.488;2023-11-18T10:38:04;11.90;99.90
25440;DHT22;13365;52.208;5.488;2023-11-18T10:40:32;11.90;99.90
25440;DHT22;13365;52.208;5.488;2023-11-18T10:43:05;12.00;99.90
25440;DHT22;13365;52.208;5.488;2023-11-18T10:45:35;11.80;99.90
25440;DHT22;13365;52.208;5.488;2023-11-18T10:48:05;11.90;99.90
25440;DHT22;13365;52.208;5.488;2023-11-18T10:50:31;11.70;99.90
25440;DHT22;13365;52.208;5.488;2023-11-18T10:52:59;11.70;99.90
25440;DHT22;13365;52.208;5.488;2023-11-18T10:55:37;11.70;99.90
25440;DHT22;13365;52.208;5.488;2023-11-18T10:58:03;11.60;99.90
25440;DHT22;13365;52.208;5.488;2023-11-18T11:00:51;11.60;99.90
25440;DHT22;13365;52.208;5.488;2023-11-18T11:03:21;11.60;99.90
25440;DHT22;13365;52.208;5.488;2023-11-18T11:05:52;11.70;99.90
25440;DHT22;13365;52.208;5.488;2023-11-18T11:08:19;11.70;99.90
25440;DHT22;13365;52.208;5.488;2023-11-18T11:10:46;11.70;99.90
25440;DHT22;13365;52.208;5.488;2023-11-18T11:13:17;11.60;99.90
25440;DHT22;13365;52.208;5.488;2023-11-18T11:15:44;11.60;99.90
25440;DHT22;13365;52.208;5.488;2023-11-18T11:18:12;11.70;99.90
25440;DHT22;13365;52.208;5.488;2023-11-18T11:20:57;11.70;99.90
25440;DHT22;13365;52.208;5.488;2023-11-18T11:23:34;11.70;99.90
25440;DHT22;13365;52.208;5.488;2023-11-18T11:28:52;11.60;99.90
25440;DHT22;13365;52.208;5.488;2023-11-18T11:31:35;11.60;99.90
25440;DHT22;13365;52.208;5.488;2023-11-18T11:34:06;11.50;99.90
25440;DHT22;13365;52.208;5.488;2023-11-18T11:36:44;11.40;99.90
25440;DHT22;13365;52.208;5.488;2023-11-18T11:39:13;11.30;99.90
25440;DHT22;13365;52.208;5.488;2023-11-18T11:41:45;11.40;99.90
25440;DHT22;13365;52.208;5.488;2023-11-18T11:44:16;11.40;99.90
25440;DHT22;13365;52.208;5.488;2023-11-18T11:46:45;11.20;99.90
25440;DHT22;13365;52.208;5.488;2023-11-18T11:49:19;11.20;99.90
25440;DHT22;13365;52.208;5.488;2023-11-18T11:54:25;11.40;99.90
25440;DHT22;13365;52.208;5.488;2023-11-18T11:56:56;11.30;99.90
25440;DHT22;13365;52.208;5.488;2023-11-18T12:02:25;11.40;99.90
25440;DHT22;13365;52.208;5.488;2023-11-18T12:04:57;11.30;99.90
25440;DHT22;13365;52.208;5.488;2023-11-18T12:07:27;11.30;99.90
25440;DHT22;13365;52.208;5.488;2023-11-18T12:09:59;11.60;99.90
25440;DHT22;13365;52.208;5.488;2023-11-18T12:12:27;11.50;99.90
25440;DHT22;13365;52.208;5.488;2023-11-18T12:14:57;11.40;99.90
25440;DHT22;13365;52.208;5.488;2023-11-18T12:17:26;11.30;99.90
25440;DHT22;13365;52.208;5.488;2023-11-18T12:19:57;11.40;99.90
25440;DHT22;13365;52.208;5.488;2023-11-18T12:23:03;11.60;99.90
25440;DHT22;13365;52.208;5.488;2023-11-18T12:25:30;11.60;99.90
25440;DHT22;13365;52.208;5.488;2023-11-18T12:27:57;11.60;99.90
25440;DHT22;13365;52.208;5.488;2023-11-18T12:33:01;11.70;99.90
25440;DHT22;13365;52.208;5.488;2023-11-18T12:40:54;11.70;99.90
25440;DHT22;13365;52.208;5.488;2023-11-18T12:43:38;11.60;99.90
25440;DHT22;13365;52.208;5.488;2023-11-18T12:49:02;11.30;99.90
25440;DHT22;13365;52.208;5.488;2023-11-18T12:51:28;11.40;99.90
25440;DHT22;13365;52.208;5.488;2023-11-18T12:53:56;11.10;99.90
25440;DHT22;13365;52.208;5.488;2023-11-18T12:56:25;11.10;99.90
25440;DHT22;13365;52.208;5.488;2023-11-18T12:58:51;11.30;99.90
25440;DHT22;13365;52.208;5.488;2023-11-18T13:01:16;11.40;99.90
25440;DHT22;13365;52.208;5.488;2023-11-18T13:03:43;11.40;99.90
25440;DHT22;13365;52.208;5.488;2023-11-18T13:06:09;11.30;99.90
25440;DHT22;13365;52.208;5.488;2023-11-18T13:08:38;11.30;99.90
25440;DHT22;13365;52.208;5.488;2023-11-18T13:11:04;11.50;99.90
25440;DHT22;13365;52.208;5.488;2023-11-18T13:13:33;11.70;99.90
25440;DHT22;13365;52.208;5.488;2023-11-18T13:15:59;11.60;99.90
25440;DHT22;13365;52.208;5.488;2023-11-18T13:18:25;11.60;99.90
25440;DHT22;13365;52.208;5.488;2023-11-18T13:20:58;11.60;99.90
25440;DHT22;13365;52.208;5.488;2023-11-18T13:23:27;11.60;99.90
25440;DHT22;13365;52.208;5.488;2023-11-18T13:25:57;11.50;99.90
25440;DHT22;13365;52.208;5.488;2023-11-18T13:28:25;11.60;99.90
25440;DHT22;13365;52.208;5.488;2023-11-18T13:30:51;11.50;99.90
25440;DHT22;13365;52.208;5.488;2023-11-18T13:33:17;11.40;99.90
25440;DHT22;13365;52.208;5.488;2023-11-18T13:35:43;11.40;99.90
25440;DHT22;13365;52.208;5.488;2023-11-18T13:38:09;11.40;99.90
25440;DHT22;13365;52.208;5.488;2023-11-18T13:40:46;11.30;99.90
25440;DHT22;13365;52.208;5.488;2023-11-18T13:43:14;11.40;99.90
25440;DHT22;13365;52.208;5.488;2023-11-18T13:45:40;11.70;99.90
25440;DHT22;13365;52.208;5.488;2023-11-18T13:48:08;11.60;99.90
25440;DHT22;13365;52.208;5.488;2023-11-18T13:50:37;11.50;99.90
25440;DHT22;13365;52.208;5.488;2023-11-18T13:53:03;11.60;99.90
25440;DHT22;13365;52.208;5.488;2023-11-18T13:55:31;11.50;99.90
25440;DHT22;13365;52.208;5.488;2023-11-18T13:57:57;11.70;99.90
25440;DHT22;13365;52.208;5.488;2023-11-18T14:00:27;11.60;99.90
25440;DHT22;13365;52.208;5.488;2023-11-18T14:02:54;11.50;99.90
25440;DHT22;13365;52.208;5.488;2023-11-18T14:05:22;11.50;99.90
25440;DHT22;13365;52.208;5.488;2023-11-18T14:07:51;11.60;99.90
25440;DHT22;13365;52.208;5.488;2023-11-18T14:10:16;11.70;99.90
25440;DHT22;13365;52.208;5.488;2023-11-18T14:13:04;11.60;99.90
25440;DHT22;13365;52.208;5.488;2023-11-18T14:15:37;11.70;99.90
25440;DHT22;13365;52.208;5.488;2023-11-18T14:18:06;11.60;99.90
25440;DHT22;13365;52.208;5.488;2023-11-18T14:20:35;11.60;99.90
25440;DHT22;13365;52.208;5.488;2023-11-18T14:23:01;11.70;99.90
25440;DHT22;13365;52.208;5.488;2023-11-18T14:25:29;11.70;99.90
25440;DHT22;13365;52.208;5.488;2023-11-18T14:27:54;11.70;99.90
25440;DHT22;13365;52.208;5.488;2023-11-18T14:30:20;11.50;99.90
25440;DHT22;13365;52.208;5.488;2023-11-18T14:32:50;11.60;99.90
25440;DHT22;13365;52.208;5.488;2023-11-18T14:35:15;11.50;99.90
25440;DHT22;13365;52.208;5.488;2023-11-18T14:37:43;11.50;99.90
25440;DHT22;13365;52.208;5.488;2023-11-18T14:40:13;11.60;99.90
25440;DHT22;13365;52.208;5.488;2023-11-18T14:42:50;11.70;99.90
25440;DHT22;13365;52.208;5.488;2023-11-18T14:45:16;11.70;99.90
25440;DHT22;13365;52.208;5.488;2023-11-18T14:47:42;11.70;99.90
25440;DHT22;13365;52.208;5.488;2023-11-18T14:50:13;11.60;99.90
25440;DHT22;13365;52.208;5.488;2023-11-18T14:52:44;11.70;99.90
25440;DHT22;13365;52.208;5.488;2023-11-18T14:55:10;11.60;99.90
25440;DHT22;13365;52.208;5.488;2023-11-18T14:57:39;11.50;99.90
25440;DHT22;13365;52.208;5.488;2023-11-18T15:00:05;11.50;99.90
25440;DHT22;13365;52.208;5.488;2023-11-18T15:02:33;11.50;99.90
25440;DHT22;13365;52.208;5.488;2023-11-18T15:05:00;11.60;99.90
25440;DHT22;13365;52.208;5.488;2023-11-18T15:07:25;11.40;99.90
25440;DHT22;13365;52.208;5.488;2023-11-18T15:09:51;11.50;99.90
25440;DHT22;13365;52.208;5.488;2023-11-18T15:12:17;11.50;99.90
25440;DHT22;13365;52.208;5.488;2023-11-18T15:14:45;11.50;99.90
25440;DHT22;13365;52.208;5.488;2023-11-18T15:17:12;11.50;99.90
25440;DHT22;13365;52.208;5.488;2023-11-18T15:19:39;11.50;99.90
25440;DHT22;13365;52.208;5.488;2023-11-18T15:22:05;11.50;99.90
25440;DHT22;13365;52.208;5.488;2023-11-18T15:24:30;11.60;99.90
25440;DHT22;13365;52.208;5.488;2023-11-18T15:26:57;11.70;99.90
25440;DHT22;13365;52.208;5.488;2023-11-18T15:29:25;11.70;99.90
25440;DHT22;13365;52.208;5.488;2023-11-18T15:31:58;11.70;99.90
25440;DHT22;13365;52.208;5.488;2023-11-18T15:34:24;11.90;99.90
25440;DHT22;13365;52.208;5.488;2023-11-18T15:36:50;12.00;99.90
25440;DHT22;13365;52.208;5.488;2023-11-18T15:39:16;11.90;99.90
25440;DHT22;13365;52.208;5.488;2023-11-18T15:41:42;11.90;99.90
25440;DHT22;13365;52.208;5.488;2023-11-18T15:44:08;11.80;99.90
25440;DHT22;13365;52.208;5.488;2023-11-18T15:46:34;11.80;99.90
25440;DHT22;13365;52.208;5.488;2023-11-18T15:49:03;12.00;99.90
25440;DHT22;13365;52.208;5.488;2023-11-18T15:51:28;12.10;99.90
25440;DHT22;13365;52.208;5.488;2023-11-18T15:53:56;12.00;99.90
25440;DHT22;13365;52.208;5.488;2023-11-18T15:56:21;11.90;99.90
25440;DHT22;13365;52.208;5.488;2023-11-18T15:58:48;11.80;99.90
25440;DHT22;13365;52.208;5.488;2023-11-18T16:01:13;11.80;99.90